Time;durP1;ratioP1;P1;durP2;ratioP2;P2;SDS_P1;SDS_P2;PMS_P1;PMS_P2;Temp;Humidity;BMP_temperature;BMP_pressure;BME280_temperature;BME280_humidity;BME280_pressure;Samples;Min_cycle;Max_cycle;Signal;HPM_P1;HPM_P2
2023/05/11 00:00:26;;;;;;;0.83;0.30;;;;;;;;;;20934315;28;20225;-80
2023/05/11 00:10:28;;;;;;;0.30;0.30;;;15.80;99.90;;;;;;21051955;28;20587;-80
2023/05/11 00:20:30;;;;;;;0.33;0.33;;;;;;;;;;21023335;28;20266;-80
2023/05/11 00:30:32;;;;;;;0.60;0.30;;;;;;;;;;21075642;28;20228;-80
2023/05/11 00:40:34;;;;;;;0.30;0.30;;;;;;;;;;21036098;28;20250;-80
2023/05/11 00:50:35;;;;;;;0.60;0.30;;;;;;;;;;21071468;28;20262;-80
2023/05/11 01:00:37;;;;;;;0.40;0.30;;;;;;;;;;21039391;28;20621;-80
2023/05/11 01:10:39;;;;;;;0.30;0.30;;;;;;;;;;21073585;28;20258;-80
2023/05/11 01:20:43;;;;;;;2.33;0.40;;;15.00;99.90;;;;;;21055100;28;20265;-80
2023/05/11 01:30:45;;;;;;;0.33;0.30;;;;;;;;;;20977872;28;20236;-80
2023/05/11 01:40:50;;;;;;;0.50;0.30;;;;;;;;;;20971157;28;20815;-80
2023/05/11 01:50:52;;;;;;;0.40;0.40;;;;;;;;;;20969481;28;20225;-80
2023/05/11 02:00:54;;;;;;;0.50;0.30;;;;;;;;;;20984867;28;20217;-79
2023/05/11 02:10:56;;;;;;;0.70;0.50;;;;;;;;;;20905129;28;20221;-81
2023/05/11 02:20:59;;;;;;;0.40;0.40;;;;;;;;;;20914679;28;20753;-80
2023/05/11 02:31:05;;;;;;;0.53;0.30;;;14.80;99.90;;;;;;20999298;28;20224;-82
2023/05/11 02:41:15;;;;;;;0.40;0.37;;;14.80;99.90;;;;;;21064020;28;20254;-82
2023/05/11 02:51:21;;;;;;;0.93;0.50;;;14.70;99.90;;;;;;21047147;28;20258;-81
2023/05/11 03:01:25;;;;;;;0.40;0.40;;;;;;;;;;21046323;28;20568;-82
2023/05/11 03:11:27;;;;;;;0.60;0.60;;;14.60;99.90;;;;;;21045264;28;20220;-82
2023/05/11 03:21:29;;;;;;;0.73;0.37;;;;;;;;;;21079029;28;20554;-80
2023/05/11 03:31:31;;;;;;;0.63;0.43;;;;;;;;;;21030881;28;20578;-81
2023/05/11 03:41:34;;;;;;;0.77;0.50;;;;;;;;;;20988195;28;20285;-80
2023/05/11 03:51:37;;;;;;;1.70;0.90;;;14.30;99.90;;;;;;21046628;28;20225;-81
2023/05/11 04:01:39;;;;;;;2.23;1.37;;;;;;;;;;21058140;28;20690;-81
2023/05/11 04:11:43;;;;;;;2.60;1.07;;;;;;;;;;21057837;28;20220;-80
2023/05/11 04:21:45;;;;;;;1.90;1.37;;;;;;;;;;21057216;28;20221;-81
2023/05/11 04:31:47;;;;;;;1.80;1.20;;;;;;;;;;21040142;28;20220;-81
2023/05/11 04:41:48;;;;;;;2.37;1.60;;;;;;;;;;21006461;28;20716;-82
2023/05/11 04:51:50;;;;;;;2.50;1.37;;;;;;;;;;21058689;28;20631;-81
2023/05/11 05:01:53;;;;;;;1.80;1.40;;;;;;;;;;21033859;28;20274;-81
2023/05/11 05:11:55;;;;;;;2.77;1.77;;;;;;;;;;20978675;28;20225;-81
2023/05/11 05:21:56;;;;;;;2.33;1.70;;;;;;;;;;20967926;28;20690;-81
2023/05/11 05:31:59;;;;;;;2.63;1.63;;;;;;;;;;20957596;28;20265;-81
2023/05/11 05:42:02;;;;;;;2.17;1.50;;;;;;;;;;21063269;28;20276;-81
2023/05/11 05:52:04;;;;;;;2.40;1.40;;;;;;;;;;20986049;28;20267;-81
2023/05/11 06:02:07;;;;;;;3.20;1.80;;;;;;;;;;20972144;28;20623;-81
2023/05/11 06:12:10;;;;;;;2.70;1.43;;;;;;;;;;20975088;28;20566;-80
2023/05/11 06:22:16;;;;;;;1.80;1.43;;;;;;;;;;21012468;28;20226;-80
2023/05/11 06:32:18;;;;;;;1.83;1.20;;;;;;;;;;20946698;28;20307;-82
2023/05/11 06:42:22;;;;;;;5.13;1.10;;;;;;;;;;20900597;28;20242;-82
2023/05/11 06:52:24;;;;;;;2.03;1.30;;;;;;;;;;20882046;28;20237;-81
2023/05/11 07:02:27;;;;;;;4.90;1.40;;;;;;;;;;20904681;28;20222;-81
2023/05/11 07:12:28;;;;;;;2.13;1.33;;;;;;;;;;20956164;28;20237;-81
2023/05/11 07:22:30;;;;;;;3.30;1.10;;;;;;;;;;20980070;28;20217;-81
2023/05/11 07:32:32;;;;;;;1.50;0.97;;;;;;;;;;20996724;28;20789;-81
2023/05/11 07:42:34;;;;;;;1.73;1.20;;;;;;;;;;20948329;28;20234;-81
2023/05/11 07:52:36;;;;;;;1.40;0.83;;;;;;;;;;20912725;28;20279;-81
2023/05/11 08:02:38;;;;;;;1.40;0.90;;;;;;;;;;20959303;28;20229;-81
2023/05/11 08:12:39;;;;;;;0.70;0.60;;;;;;;;;;20976769;28;20229;-80
2023/05/11 08:22:41;;;;;;;1.47;0.83;;;;;;;;;;20971954;28;20255;-80
2023/05/11 08:32:44;;;;;;;2.07;1.07;;;;;;;;;;20899715;28;20237;-81
2023/05/11 08:42:48;;;;;;;1.10;0.87;;;15.90;99.90;;;;;;20992393;28;20229;-81
2023/05/11 08:52:49;;;;;;;1.10;0.80;;;;;;;;;;20973048;28;20259;-79
2023/05/11 09:02:51;;;;;;;2.47;0.60;;;;;;;;;;20973406;28;20282;-82
2023/05/11 09:12:53;;;;;;;0.87;0.57;;;;;;;;;;20989993;28;20274;-82
2023/05/11 09:22:55;;;;;;;2.40;0.53;;;;;;;;;;20958966;28;20209;-82
2023/05/11 09:32:58;;;;;;;0.60;0.40;;;16.10;99.90;;;;;;20989897;28;20233;-83
2023/05/11 09:43:00;;;;;;;1.67;0.80;;;;;;;;;;20988086;28;20252;-83
2023/05/11 09:53:02;;;;;;;0.80;0.50;;;;;;;;;;20976703;28;20225;-83
2023/05/11 10:03:06;;;;;;;1.20;0.60;;;16.60;99.90;;;;;;20972890;28;20327;-82
2023/05/11 10:13:07;;;;;;;0.80;0.60;;;;;;;;;;21004636;28;20220;-80
2023/05/11 10:23:11;;;;;;;3.93;1.10;;;;;;;;;;21063969;28;20567;-82
2023/05/11 10:33:13;;;;;;;1.33;1.00;;;16.50;99.90;;;;;;21068965;28;20270;-79
2023/05/11 10:43:18;;;;;;;1.73;0.90;;;;;;;;;;21035621;28;20585;-80
2023/05/11 10:53:32;;;;;;;2.40;1.03;;;;;;;;;;21083469;28;20274;-80
2023/05/11 11:03:34;;;;;;;2.67;1.13;;;;;;;;;;20950930;28;20217;-80
2023/05/11 11:13:56;;;;;;;1.70;1.00;;;;;;;;;;21072964;28;20255;-79
2023/05/11 11:24:00;;;;;;;1.30;0.87;;;;;;;;;;21063463;28;20216;-80
2023/05/11 11:34:35;;;;;;;1.33;0.70;;;;;;;;;;21023429;28;20251;-79
2023/05/11 11:44:37;;;;;;;1.03;0.70;;;;;;;;;;20940479;28;20760;-79
2023/05/11 11:54:39;;;;;;;1.27;1.00;;;;;;;;;;20979992;28;20237;-79
2023/05/11 12:04:50;;;;;;;1.70;0.90;;;;;;;;;;20971114;28;20228;-81
2023/05/11 12:14:51;;;;;;;1.23;0.80;;;;;;;;;;21035479;28;20240;-80
2023/05/11 12:24:56;;;;;;;2.50;0.70;;;;;;;;;;20973215;28;20283;-80
2023/05/11 12:35:00;;;;;;;1.90;0.83;;;;;;;;;;20974198;28;20225;-80
2023/05/11 12:45:02;;;;;;;1.83;0.80;;;;;;;;;;20973531;28;20224;-80
2023/05/11 12:55:04;;;;;;;0.87;0.57;;;;;;;;;;20956162;28;20233;-80
2023/05/11 13:05:10;;;;;;;0.83;0.63;;;;;;;;;;20990523;28;20689;-80
2023/05/11 13:15:12;;;;;;;1.33;0.80;;;;;;;;;;20971939;28;20233;-80
2023/05/11 13:25:15;;;;;;;1.47;0.80;;;;;;;;;;20989858;28;20259;-80
2023/05/11 13:35:17;;;;;;;0.70;0.50;;;;;;;;;;20969253;28;20283;-79
2023/05/11 13:45:20;;;;;;;1.13;0.73;;;;;;;;;;20946899;28;20568;-79
2023/05/11 13:55:21;;;;;;;1.53;0.57;;;;;;;;;;20968013;28;20241;-80
2023/05/11 14:05:23;;;;;;;0.57;0.50;;;;;;;;;;20998473;28;20947;-80
2023/05/11 14:15:25;;;;;;;1.37;0.60;;;;;;;;;;20984459;28;20267;-80
2023/05/11 14:25:27;;;;;;;0.80;0.50;;;;;;;;;;20983636;28;20217;-81
2023/05/11 14:35:29;;;;;;;1.27;0.80;;;;;;;;;;20999546;28;20267;-81
2023/05/11 14:45:30;;;;;;;1.00;0.53;;;;;;;;;;20949844;28;20225;-80
2023/05/11 14:55:32;;;;;;;1.43;0.97;;;;;;;;;;20980815;28;20233;-82
2023/05/11 15:05:34;;;;;;;2.53;0.60;;;;;;;;;;20964722;28;20229;-82
2023/05/11 15:15:36;;;;;;;1.30;0.80;;;;;;;;;;20981598;28;20248;-80
2023/05/11 15:25:38;;;;;;;1.33;1.10;;;;;;;;;;20980721;28;20205;-81
2023/05/11 15:35:40;;;;;;;1.27;0.80;;;;;;;;;;20994595;28;20233;-80
2023/05/11 15:45:42;;;;;;;2.07;0.90;;;;;;;;;;20944975;28;20222;-80
2023/05/11 15:55:45;;;;;;;2.87;1.10;;;;;;;;;;20992599;28;20255;-80
2023/05/11 16:05:50;;;;;;;0.80;0.40;;;;;;;;;;20980995;28;20209;-83
2023/05/11 16:15:52;;;;;;;0.70;0.50;;;;;;;;;;20976157;28;20286;-82
2023/05/11 16:25:55;;;;;;;1.17;0.60;;;;;;;;;;21020224;28;20210;-81
2023/05/11 16:35:57;;;;;;;2.00;0.80;;;;;;;;;;21050349;28;20258;-83
2023/05/11 16:46:01;;;;;;;1.07;0.83;;;;;;;;;;21036562;28;20216;-82
2023/05/11 16:56:03;;;;;;;1.53;1.10;;;;;;;;;;20924466;28;20710;-81
2023/05/11 17:06:05;;;;;;;2.13;1.20;;;;;;;;;;20927567;28;20278;-81
2023/05/11 17:16:06;;;;;;;1.77;0.93;;;;;;;;;;21008029;28;20232;-81
2023/05/11 17:26:09;;;;;;;0.70;0.50;;;16.80;99.90;;;;;;21052576;28;20366;-80
2023/05/11 17:36:11;;;;;;;0.80;0.60;;;;;;;;;;21000647;28;20633;-80
2023/05/11 17:46:14;;;;;;;0.77;0.50;;;;;;;;;;20954763;28;20606;-79
2023/05/11 17:56:17;;;;;;;1.10;0.73;;;;;;;;;;21046306;28;20697;-79
2023/05/11 18:06:18;;;;;;;0.70;0.50;;;;;;;;;;21058497;28;20240;-80
2023/05/11 18:16:20;;;;;;;1.40;0.80;;;;;;;;;;20939127;28;20275;-79
2023/05/11 18:26:24;;;;;;;1.20;0.67;;;16.60;99.90;;;;;;21016196;28;20279;-79
2023/05/11 18:36:26;;;;;;;1.10;0.80;;;;;;;;;;21030286;28;20220;-79
2023/05/11 18:46:28;;;;;;;1.10;0.80;;;;;;;;;;20930188;28;20256;-80
2023/05/11 18:56:30;;;;;;;1.00;0.70;;;;;;;;;;21017033;28;20259;-80
2023/05/11 19:06:33;;;;;;;1.20;0.90;;;;;;;;;;21061989;28;20220;-81
2023/05/11 19:16:35;;;;;;;1.33;0.60;;;;;;;;;;21064132;28;20220;-81
2023/05/11 19:26:38;;;;;;;0.80;0.70;;;;;;;;;;21063123;28;20303;-82
2023/05/11 19:36:40;;;;;;;2.17;1.20;;;;;;;;;;21080487;28;20978;-80
2023/05/11 19:46:45;;;;;;;1.43;1.03;;;;;;;;;;21022337;28;20802;-80
2023/05/11 19:56:47;;;;;;;2.07;1.10;;;;;;;;;;20951032;28;20264;-80
2023/05/11 20:06:49;;;;;;;2.20;0.80;;;;;;;;;;20913535;28;20222;-79
2023/05/11 20:16:51;;;;;;;1.07;0.60;;;;;;;;;;20861306;28;20276;-79
2023/05/11 20:26:53;;;;;;;1.03;0.80;;;;;;;;;;20963211;28;20213;-79
2023/05/11 20:36:55;;;;;;;1.53;1.00;;;;;;;;;;20981712;28;20278;-79
2023/05/11 20:46:57;;;;;;;1.50;1.17;;;;;;;;;;20974587;28;20217;-79
2023/05/11 20:56:58;;;;;;;2.00;1.27;;;;;;;;;;20973675;28;20237;-79
2023/05/11 21:07:00;;;;;;;1.73;1.23;;;;;;;;;;20990675;28;20217;-79
2023/05/11 21:17:02;;;;;;;2.33;1.43;;;;;;;;;;20972753;28;20233;-79
2023/05/11 21:27:04;;;;;;;4.40;1.67;;;;;;;;;;20955898;28;20213;-79
2023/05/11 21:37:06;;;;;;;2.60;1.70;;;;;;;;;;21013296;28;20267;-79
2023/05/11 21:47:07;;;;;;;1.87;1.30;;;;;;;;;;20963726;28;20289;-79
2023/05/11 21:57:09;;;;;;;2.67;1.60;;;;;;;;;;20980360;28;20707;-79
2023/05/11 22:07:11;;;;;;;2.00;1.37;;;;;;;;;;20963840;28;20267;-80
2023/05/11 22:17:13;;;;;;;2.47;1.77;;;;;;;;;;20952314;28;20234;-80
2023/05/11 22:27:15;;;;;;;2.77;1.40;;;;;;;;;;20904338;28;20214;-79
2023/05/11 22:37:17;;;;;;;1.60;0.97;;;;;;;;;;20906775;28;20288;-79
2023/05/11 22:47:18;;;;;;;1.67;0.80;;;;;;;;;;20989000;28;20212;-80
2023/05/11 22:57:22;;;;;;;1.23;0.70;;;;;;;;;;21047302;28;20236;-80
2023/05/11 23:07:24;;;;;;;0.83;0.63;;;;;;;;;;21064055;28;20212;-80
2023/05/11 23:17:26;;;;;;;1.33;0.80;;;;;;;;;;20994757;28;20300;-79
2023/05/11 23:27:28;;;;;;;1.37;0.87;;;;;;;;;;20995396;28;20225;-79
2023/05/11 23:37:29;;;;;;;0.83;0.60;;;;;;;;;;20977129;28;20274;-79
2023/05/11 23:47:31;;;;;;;0.70;0.70;;;;;;;;;;20942898;28;20239;-79
2023/05/11 23:57:33;;;;;;;0.83;0.63;;;;;;;;;;20975011;28;20229;-79
